Time;durP1;ratioP1;P1;durP2;ratioP2;P2;SDS_P1;SDS_P2;PMS_P1;PMS_P2;Temp;Humidity;BMP_temperature;BMP_pressure;BME280_temperature;BME280_humidity;BME280_pressure;Samples;Min_cycle;Max_cycle;Signal;HPM_P1;HPM_P2
2021/05/18 00:00:32;;;;;;;1.52;0.75;;;;;;;19.16;54.85;101040.59;4760031;30;20066;-86
2021/05/18 00:02:58;;;;;;;2.13;1.10;;;;;;;19.17;54.84;101041.47;4746187;30;20032;-86
2021/05/18 00:05:25;;;;;;;1.20;0.80;;;;;;;19.16;54.90;101045.81;4746092;30;20042;-86
2021/05/18 00:08:03;;;;;;;1.65;1.10;;;;;;;19.18;54.96;101038.81;4746740;30;20036;-87
2021/05/18 00:13:20;;;;;;;1.33;0.70;;;;;;;19.18;55.02;101043.19;4796418;29;20169;-86
2021/05/18 00:15:46;;;;;;;1.30;0.85;;;;;;;19.16;54.99;101034.53;4782441;30;20043;-86
2021/05/18 00:24:56;;;;;;;1.17;0.80;;;;;;;19.14;54.77;101034.56;4804079;30;20050;-89
2021/05/18 00:27:23;;;;;;;1.98;0.90;;;;;;;19.15;55.10;101036.28;4786189;30;20027;-90
2021/05/18 00:29:50;;;;;;;2.03;0.95;;;;;;;19.15;55.09;101041.50;4783817;30;20031;-89
2021/05/18 00:32:16;;;;;;;1.77;1.20;;;;;;;19.13;54.96;101035.44;4784565;29;20126;-90
2021/05/18 00:34:41;;;;;;;3.78;0.98;;;;;;;19.14;54.88;101037.16;4782625;30;20091;-87
2021/05/18 00:37:07;;;;;;;1.67;0.88;;;;;;;19.14;54.97;101039.78;4768178;30;20124;-87
2021/05/18 00:39:32;;;;;;;1.17;0.90;;;;;;;19.13;55.01;101035.44;4798947;29;20038;-86
2021/05/18 00:41:58;;;;;;;2.03;1.00;;;;;;;19.12;55.11;101036.31;4783849;30;20039;-87
2021/05/18 00:44:23;;;;;;;1.77;1.10;;;;;;;19.13;54.81;101045.84;4784320;30;20504;-87
2021/05/18 00:46:49;;;;;;;1.98;0.80;;;;;;;19.13;54.98;101038.03;4782831;30;20031;-86
2021/05/18 00:49:14;;;;;;;2.60;1.17;;;;;;;19.13;54.88;101037.19;4769553;30;20043;-87
2021/05/18 00:51:41;;;;;;;1.52;1.00;;;;;;;19.14;55.01;101042.38;4769424;30;20043;-87
2021/05/18 00:54:14;;;;;;;1.52;0.98;;;;;;;19.15;55.01;101046.72;4785072;30;20182;-87
2021/05/18 00:59:06;;;;;;;2.05;0.98;;;;;;;19.12;55.10;101044.16;4781447;30;20081;-86
2021/05/18 01:01:32;;;;;;;1.80;0.85;;;;;;;19.15;54.84;101045.84;4783325;30;20092;-86
2021/05/18 01:03:59;;;;;;;2.13;1.10;;;;;;;19.14;54.94;101042.38;4766654;30;20040;-86
2021/05/18 01:18:48;;;;;;;2.08;0.90;;;;;;;19.14;55.01;101037.16;4857644;24;20448;-85
2021/05/18 01:21:14;;;;;;;2.72;1.10;;;;;;;19.11;55.13;101043.25;4769102;30;20468;-85
2021/05/18 01:23:41;;;;;;;1.40;0.80;;;;;;;19.11;55.10;101035.44;4767584;30;20031;-88
2021/05/18 01:26:07;;;;;;;1.40;0.80;;;;;;;19.13;55.12;101040.66;4751438;30;20103;-87
2021/05/18 01:28:33;;;;;;;3.50;0.80;;;;;;;19.14;55.15;101041.50;4765759;30;20114;-85
2021/05/18 01:31:00;;;;;;;1.45;0.73;;;;;;;19.11;55.20;101038.03;4751182;30;20043;-86
2021/05/18 01:48:47;;;;;;;1.45;0.88;;;;;;;19.11;55.07;101040.66;4803554;30;20399;-89
2021/05/18 01:51:14;;;;;;;2.42;1.02;;;;;;;19.12;55.18;101036.31;4769072;30;20106;-90
2021/05/18 01:53:39;;;;;;;2.05;0.75;;;;;;;19.11;55.25;101045.88;4784845;30;20038;-90
2021/05/18 01:59:44;;;;;;;1.70;0.90;;;;;;;19.13;55.17;101045.00;4808680;24;20472;-91
2021/05/18 02:05:16;;;;;;;1.80;0.73;;;;;;;19.12;55.32;101046.75;4966076;24;20062;-90
2021/05/18 02:07:43;;;;;;;1.75;0.80;;;;;;;19.12;55.28;101049.38;4773499;30;20035;-91
2021/05/18 02:10:12;;;;;;;1.80;0.88;;;;;;;19.10;55.24;101051.13;4768094;30;20035;-91
2021/05/18 02:12:38;;;;;;;1.45;0.90;;;;;;;19.10;55.21;101054.59;4783397;30;20038;-87
2021/05/18 02:15:18;;;;;;;2.65;0.95;;;;;;;19.11;55.14;101061.53;4765077;30;20036;-89
2021/05/18 02:30:17;;;;;;;1.33;0.70;;;;;;;19.09;55.19;101065.91;4804495;24;20070;-89
2021/05/18 02:32:42;;;;;;;1.83;0.98;;;;;;;19.08;55.37;101063.31;4752363;30;20032;-89
2021/05/18 02:35:11;;;;;;;1.58;0.80;;;;;;;19.07;55.11;101069.41;4767424;30;20043;-88
2021/05/18 02:37:38;;;;;;;1.38;0.90;;;;;;;19.07;55.41;101062.44;4752297;30;20051;-89
2021/05/18 02:40:06;;;;;;;1.73;1.00;;;;;;;19.06;55.24;101068.56;4726485;30;20048;-90
2021/05/18 02:51:45;;;;;;;1.67;0.77;;;;;;;19.07;55.37;101069.41;4786202;30;20055;-88
2021/05/18 03:21:42;;;;;;;1.33;0.75;;;;;;;19.03;55.29;101083.38;4888410;24;20063;-88
2021/05/18 03:24:08;;;;;;;1.83;0.95;;;;;;;19.06;55.21;101086.81;4760141;30;20051;-86
2021/05/18 03:26:57;;;;;;;1.20;0.80;;;;;;;19.05;55.35;101095.53;4772458;30;20041;-87
2021/05/18 05:19:40;;;;;;;12.55;3.13;;;;;;;19.17;55.86;101151.06;4838133;24;20123;-90
2021/05/18 05:22:07;;;;;;;8.65;3.15;;;;;;;19.18;55.47;101145.78;4784124;30;20059;-89
2021/05/18 05:27:45;;;;;;;11.98;3.15;;;;;;;19.23;55.52;101154.44;4884968;24;20155;-89
2021/05/18 05:30:11;;;;;;;7.95;2.90;;;;;;;19.25;55.52;101162.25;4754134;30;20035;-88
2021/05/18 05:32:37;;;;;;;10.63;2.70;;;;;;;19.25;55.60;101157.03;4764795;30;20032;-90
2021/05/18 05:35:03;;;;;;;9.65;2.50;;;;;;;19.27;55.36;101165.69;4749151;30;20053;-90
2021/05/18 05:37:28;;;;;;;5.28;2.25;;;;;;;19.28;55.20;101157.84;4762537;30;20059;-90
2021/05/18 05:39:54;;;;;;;11.15;2.50;;;;;;;19.32;55.43;101169.13;4765959;30;20040;-90
2021/05/18 05:42:20;;;;;;;7.15;2.28;;;;;;;19.57;54.85;101171.44;4763019;30;20111;-91
2021/05/18 05:44:46;;;;;;;6.93;2.08;;;;;;;19.77;54.37;101174.69;4757367;30;20085;-90
2021/05/18 05:47:11;;;;;;;8.45;2.22;;;;;;;19.88;54.04;101175.44;4757407;30;20032;-91
2021/05/18 05:49:37;;;;;;;6.22;2.30;;;;;;;19.75;54.25;101179.09;4757229;30;20032;-90
2021/05/18 05:52:04;;;;;;;6.95;2.30;;;;;;;19.68;54.43;101175.63;4756610;30;20039;-92
2021/05/18 05:54:29;;;;;;;6.65;2.08;;;;;;;19.99;53.76;101182.22;4742558;30;20039;-91
2021/05/18 05:56:55;;;;;;;7.38;2.00;;;;;;;20.24;53.32;101183.59;4756164;30;20032;-90
2021/05/18 05:59:20;;;;;;;9.18;2.58;;;;;;;20.42;53.04;101184.22;4741123;30;20174;-91
2021/05/18 06:01:48;;;;;;;5.75;2.00;;;;;;;20.53;52.74;101192.72;4756026;30;20400;-89
2021/05/18 06:04:14;;;;;;;4.10;1.90;;;;;;;20.58;52.31;101187.47;4772483;30;20035;-89
2021/05/18 06:06:39;;;;;;;4.43;1.88;;;;;;;20.61;52.02;101190.91;4756885;30;20032;-90
2021/05/18 06:09:05;;;;;;;6.15;1.88;;;;;;;20.77;52.16;101201.94;4757064;30;20368;-90
2021/05/18 06:11:57;;;;;;;5.35;1.85;;;;;;;20.89;51.88;101201.75;4756163;30;20093;-89
2021/05/18 06:17:48;;;;;;;3.50;1.70;;;;;;;21.06;50.88;101197.97;4773947;30;20065;-90
2021/05/18 06:34:21;;;;;;;3.35;1.60;;;;;;;20.98;50.67;101215.56;4774232;30;20047;-86
2021/05/18 06:47:33;;;;;;;4.35;1.70;;;;;;;20.94;51.10;101235.69;4751882;30;20059;-87
2021/05/18 06:52:36;;;;;;;4.40;1.90;;;;;;;21.45;49.29;101233.03;4775135;30;20027;-87
2021/05/18 06:55:03;;;;;;;4.30;1.60;;;;;;;21.35;49.84;101234.06;4759011;30;20395;-86
2021/05/18 06:57:31;;;;;;;3.28;1.65;;;;;;;21.45;49.69;101242.63;4745212;30;20039;-87
2021/05/18 07:00:09;;;;;;;3.75;1.60;;;;;;;21.48;49.31;101238.22;4760552;30;20093;-86
2021/05/18 07:02:37;;;;;;;3.17;1.63;;;;;;;20.97;50.58;101243.50;4760218;30;20119;-86
2021/05/18 07:05:06;;;;;;;4.85;1.90;;;;;;;20.71;51.44;101252.63;4745335;30;20131;-87
2021/05/18 07:07:33;;;;;;;2.15;1.40;;;;;;;20.63;51.47;101251.88;4746600;30;20063;-87
2021/05/18 07:09:59;;;;;;;4.18;1.55;;;;;;;20.61;51.79;101251.03;4746971;30;20043;-86
2021/05/18 07:12:24;;;;;;;3.53;1.60;;;;;;;20.61;51.71;101253.66;4761344;30;20044;-87
2021/05/18 07:14:50;;;;;;;3.03;1.70;;;;;;;20.55;51.69;101248.47;4744250;30;20514;-86
2021/05/18 07:17:16;;;;;;;3.22;1.50;;;;;;;20.50;51.95;101258.16;4775619;30;20035;-87
2021/05/18 07:19:41;;;;;;;2.80;1.60;;;;;;;20.41;52.01;101259.16;4758997;30;20479;-88
2021/05/18 07:22:07;;;;;;;4.03;1.52;;;;;;;20.34;52.35;101267.97;4758630;30;20045;-87
2021/05/18 07:24:33;;;;;;;3.83;1.50;;;;;;;20.28;52.59;101270.69;4744528;30;20040;-86
2021/05/18 07:27:00;;;;;;;3.45;1.48;;;;;;;20.24;52.66;101269.84;4762165;30;20055;-87
2021/05/18 07:29:25;;;;;;;3.45;1.65;;;;;;;20.22;52.31;101274.22;4791232;30;20119;-87
2021/05/18 07:31:51;;;;;;;3.67;1.52;;;;;;;20.24;52.72;101267.22;4791982;30;20126;-88
2021/05/18 07:34:17;;;;;;;2.90;1.58;;;;;;;20.52;52.16;101280.78;4776382;29;20046;-88
2021/05/18 07:36:45;;;;;;;2.92;1.40;;;;;;;20.68;52.07;101276.19;4791679;30;20030;-90
2021/05/18 07:39:11;;;;;;;3.63;1.50;;;;;;;20.47;51.98;101273.88;4776198;30;20031;-88
2021/05/18 07:41:40;;;;;;;2.25;1.40;;;;;;;20.46;52.22;101270.41;4791319;30;20126;-92
2021/05/18 07:44:05;;;;;;;2.45;1.20;;;;;;;20.50;52.14;101279.06;4792702;30;20039;-90
2021/05/18 07:46:31;;;;;;;2.75;1.40;;;;;;;20.42;52.27;101278.31;4793603;30;20320;-90
2021/05/18 07:59:37;;;;;;;3.55;1.45;;;;;;;20.49;52.11;101290.41;4779798;30;20406;-90
2021/05/18 08:07:21;;;;;;;4.13;1.40;;;;;;;20.86;51.25;101276.78;4792827;30;20431;-89
2021/05/18 08:09:52;;;;;;;2.55;1.13;;;;;;;20.80;51.58;101277.78;4791907;30;20037;-88
2021/05/18 08:12:20;;;;;;;5.28;1.60;;;;;;;20.79;51.40;101283.03;4791042;30;20039;-89
2021/05/18 08:14:59;;;;;;;6.32;1.40;;;;;;;20.77;51.47;101284.78;4790706;30;20437;-89
2021/05/18 08:17:31;;;;;;;3.83;1.52;;;;;;;20.74;51.24;101281.34;4790644;30;20109;-87
2021/05/18 09:49:55;;;;;;;4.82;1.75;;;;;;;20.36;51.25;101321.09;4766009;30;20063;-89
2021/05/18 10:35:09;;;;;;;3.13;1.85;;;;;;;20.32;51.24;101341.19;4769376;30;20047;-87
2021/05/18 10:37:29;;;;;;;2.53;1.65;;;;;;;20.33;51.29;101344.66;4768782;30;20036;-86
2021/05/18 10:40:16;;;;;;;3.00;1.80;;;;;;;20.32;51.37;101343.78;4757263;30;20036;-86
2021/05/18 10:43:03;;;;;;;3.97;1.90;;;;;;;20.31;51.07;101354.25;4764859;24;20166;-87
2021/05/18 10:45:54;;;;;;;4.60;2.00;;;;;;;20.29;51.15;101346.41;4773317;30;20063;-86
2021/05/18 10:50:44;;;;;;;5.90;2.70;;;;;;;20.19;50.69;101343.97;4780803;24;20063;-85
2021/05/18 10:53:38;;;;;;;5.85;2.75;;;;;;;20.12;50.30;101351.00;4741947;30;20113;-85
2021/05/18 10:56:10;;;;;;;5.90;3.67;;;;;;;19.93;48.58;101358.19;4761571;30;20096;-87
2021/05/18 10:58:37;;;;;;;8.02;4.75;;;;;;;19.66;47.78;101360.19;4757579;30;20077;-87
2021/05/18 11:01:03;;;;;;;6.20;3.33;;;;;;;19.70;48.52;101363.66;4766994;30;20042;-84
2021/05/18 11:03:34;;;;;;;7.63;3.90;;;;;;;19.71;48.53;101355.81;4753222;30;20043;-87
2021/05/18 11:06:08;;;;;;;6.38;3.47;;;;;;;19.79;48.20;101354.84;4769245;24;20064;-89
2021/05/18 11:08:35;;;;;;;6.35;3.50;;;;;;;19.77;47.74;101354.00;4764958;30;20066;-89
2021/05/18 11:11:01;;;;;;;6.97;4.03;;;;;;;19.52;46.25;101365.53;4763705;30;20062;-88
2021/05/18 11:13:30;;;;;;;6.40;4.20;;;;;;;19.45;46.63;101363.00;4739958;30;20036;-86
2021/05/18 11:16:00;;;;;;;5.72;3.60;;;;;;;19.46;46.67;101368.19;4758568;30;20114;-88
2021/05/18 11:18:34;;;;;;;10.27;4.30;;;;;;;19.36;46.25;101368.28;4774121;30;20028;-86
2021/05/18 11:24:50;;;;;;;5.90;3.70;;;;;;;19.38;46.00;101380.47;4759700;30;20104;-88
2021/05/18 11:27:26;;;;;;;6.80;3.90;;;;;;;19.42;46.16;101374.31;4758619;30;20485;-85
2021/05/18 11:29:51;;;;;;;6.28;3.05;;;;;;;19.56;46.17;101394.22;4758663;30;20109;-89
2021/05/18 11:32:17;;;;;;;4.72;2.90;;;;;;;19.64;46.27;101384.56;4756388;30;20436;-89
2021/05/18 11:34:58;;;;;;;5.15;3.13;;;;;;;19.68;46.21;101384.50;4757977;30;20033;-86
2021/05/18 11:37:27;;;;;;;5.93;2.80;;;;;;;19.72;46.00;101394.09;4758060;30;20031;-87
2021/05/18 11:40:16;;;;;;;5.80;2.97;;;;;;;19.75;46.11;101393.22;4762542;30;20040;-91
2021/05/18 11:42:43;;;;;;;4.93;2.85;;;;;;;19.79;46.33;101388.81;4756615;30;20040;-86
2021/05/18 11:45:17;;;;;;;6.63;2.97;;;;;;;19.82;46.33;101404.47;4757413;30;20035;-85
2021/05/18 11:47:44;;;;;;;4.88;2.53;;;;;;;19.81;46.33;101395.75;4756448;30;20040;-87
2021/05/18 11:50:22;;;;;;;5.32;2.85;;;;;;;19.83;46.30;101401.81;4755578;30;20123;-90
2021/05/18 11:52:48;;;;;;;4.63;2.60;;;;;;;19.86;46.18;101407.03;4757111;30;20082;-89
2021/05/18 11:55:31;;;;;;;6.70;2.50;;;;;;;19.86;46.27;101398.31;4754844;30;20519;-86
2021/05/18 11:57:59;;;;;;;3.75;2.58;;;;;;;19.86;46.40;101396.59;4756772;30;20035;-85
2021/05/18 12:00:28;;;;;;;4.88;2.63;;;;;;;19.84;46.06;101398.34;4758424;30;20105;-88
2021/05/18 12:03:11;;;;;;;5.93;2.50;;;;;;;19.86;46.18;101401.81;4763169;30;20039;-87
2021/05/18 12:05:56;;;;;;;4.82;2.60;;;;;;;19.87;46.07;101400.06;4775111;30;20412;-86
2021/05/18 12:08:38;;;;;;;5.32;2.40;;;;;;;19.88;46.02;101399.16;4781874;30;20196;-90
2021/05/18 12:11:20;;;;;;;6.57;2.58;;;;;;;19.92;46.20;101406.09;4775832;30;20031;-89
2021/05/18 12:13:51;;;;;;;4.25;2.28;;;;;;;19.92;46.20;101404.38;4793096;30;20035;-86
2021/05/18 12:16:22;;;;;;;5.10;2.30;;;;;;;19.95;46.14;101408.69;4776158;30;20410;-87
2021/05/18 12:18:58;;;;;;;5.43;2.72;;;;;;;19.94;46.44;101423.47;4791976;30;20035;-86
2021/05/18 12:21:30;;;;;;;4.40;2.20;;;;;;;19.97;46.19;101416.47;4776714;30;20491;-87
2021/05/18 12:24:12;;;;;;;5.03;2.30;;;;;;;19.95;46.29;101413.91;4777412;30;20031;-88
2021/05/18 12:27:00;;;;;;;4.97;2.50;;;;;;;19.95;46.29;101416.53;4793861;30;20031;-87
2021/05/18 12:29:37;;;;;;;4.35;2.30;;;;;;;19.94;46.15;101413.03;4780508;30;20027;-87
2021/05/18 12:32:18;;;;;;;4.03;2.47;;;;;;;19.93;46.23;101419.13;4788904;29;20019;-86
2021/05/18 12:34:45;;;;;;;5.28;2.30;;;;;;;19.93;46.14;101416.53;4795599;29;20045;-87
2021/05/18 12:37:12;;;;;;;4.18;2.50;;;;;;;19.92;45.84;101412.19;4780362;30;20094;-87
2021/05/18 12:39:42;;;;;;;3.65;2.17;;;;;;;19.93;45.94;101416.53;4778904;30;20031;-86
2021/05/18 12:42:11;;;;;;;5.53;2.30;;;;;;;19.90;45.93;101411.34;4762446;30;20039;-87
2021/05/18 12:44:52;;;;;;;3.90;2.35;;;;;;;19.92;45.89;101424.38;4776963;30;20031;-86
2021/05/18 12:47:30;;;;;;;5.15;2.33;;;;;;;19.93;45.69;101423.50;4792148;30;20067;-87
2021/05/18 12:49:57;;;;;;;5.43;2.30;;;;;;;19.94;45.84;101417.38;4791730;30;20035;-87
2021/05/18 12:52:23;;;;;;;5.32;2.10;;;;;;;19.94;45.91;101420.00;4775965;30;20042;-85
2021/05/18 12:54:57;;;;;;;6.72;2.10;;;;;;;19.94;45.71;101422.59;4793656;30;20035;-87
2021/05/18 12:57:28;;;;;;;4.90;2.28;;;;;;;19.92;45.58;101422.66;4793238;30;20514;-86
2021/05/18 13:00:00;;;;;;;4.43;2.30;;;;;;;19.93;45.78;101433.94;4792778;30;20039;-90
2021/05/18 13:02:39;;;;;;;5.13;2.30;;;;;;;19.94;45.79;101430.44;4775888;30;20035;-85
2021/05/18 13:05:29;;;;;;;5.00;1.85;;;;;;;19.92;45.76;101427.88;4792387;30;20035;-88
2021/05/18 13:08:13;;;;;;;3.92;1.95;;;;;;;19.96;45.75;101443.50;4759620;30;20123;-87
2021/05/18 13:13:21;;;;;;;7.75;2.33;;;;;;;19.97;45.74;101429.53;4796030;30;20092;-84
2021/05/18 13:15:47;;;;;;;3.88;2.08;;;;;;;19.98;45.59;101441.75;4778432;30;20067;-86
2021/05/18 13:18:14;;;;;;;5.10;2.20;;;;;;;19.99;45.60;101436.50;4778290;30;20043;-85
2021/05/18 13:20:48;;;;;;;5.93;2.05;;;;;;;19.98;45.80;101431.28;4777959;30;20042;-84
2021/05/18 13:23:41;;;;;;;4.75;2.10;;;;;;;19.99;45.95;101438.22;4777941;30;20035;-88
2021/05/18 13:26:26;;;;;;;3.85;1.83;;;;;;;19.98;45.91;101439.13;4795004;30;20031;-87
2021/05/18 13:29:18;;;;;;;5.97;2.40;;;;;;;19.95;45.70;101437.41;4777872;30;20039;-88
2021/05/18 13:31:45;;;;;;;6.80;2.30;;;;;;;19.95;45.70;101434.81;4780386;30;20043;-86
2021/05/18 13:34:12;;;;;;;5.25;1.70;;;;;;;19.93;45.72;101432.19;4779590;29;20503;-87
2021/05/18 13:36:38;;;;;;;7.80;2.08;;;;;;;19.94;45.55;101430.44;4767132;30;20077;-86
2021/05/18 13:39:07;;;;;;;3.05;2.00;;;;;;;19.96;45.44;101427.81;4797625;30;20057;-87
2021/05/18 13:41:34;;;;;;;5.15;2.03;;;;;;;19.93;45.35;101426.97;4796825;30;20031;-87
2021/05/18 13:44:00;;;;;;;5.00;1.90;;;;;;;19.94;45.60;101430.44;4779401;30;20027;-87
2021/05/18 13:46:25;;;;;;;3.42;2.00;;;;;;;19.96;45.46;101436.53;4763655;30;20031;-86
2021/05/18 13:48:51;;;;;;;6.15;1.65;;;;;;;19.94;45.78;101428.69;4764277;30;20046;-86
2021/05/18 13:51:16;;;;;;;4.18;1.75;;;;;;;19.97;45.65;101440.88;4765874;30;20039;-86
2021/05/18 13:53:42;;;;;;;3.22;1.80;;;;;;;19.97;45.66;101435.66;4760869;30;20054;-86
2021/05/18 13:56:09;;;;;;;4.35;1.77;;;;;;;19.98;45.93;101444.34;4775163;30;20134;-86
2021/05/18 13:58:35;;;;;;;4.68;1.95;;;;;;;19.97;45.88;101450.44;4775386;30;20080;-86
2021/05/18 14:01:04;;;;;;;5.72;2.17;;;;;;;19.97;45.47;101445.22;4760106;30;20036;-88
2021/05/18 14:03:29;;;;;;;4.05;1.88;;;;;;;19.97;45.71;101438.28;4774825;30;20039;-86
2021/05/18 14:05:54;;;;;;;2.65;1.58;;;;;;;19.98;45.76;101441.75;4759729;30;20151;-86
2021/05/18 14:08:24;;;;;;;3.83;1.67;;;;;;;19.98;45.42;101439.13;4774401;30;20398;-86
2021/05/18 14:11:10;;;;;;;6.43;1.70;;;;;;;19.94;45.67;101433.91;4791003;30;20067;-86
2021/05/18 14:13:38;;;;;;;3.13;1.63;;;;;;;19.91;45.41;101433.97;4775300;30;20480;-87
2021/05/18 14:16:05;;;;;;;6.07;1.60;;;;;;;19.93;45.35;101440.03;4774780;30;20456;-86
2021/05/18 14:18:39;;;;;;;4.65;1.63;;;;;;;19.94;45.39;101431.31;4775261;30;20071;-85
2021/05/18 14:21:05;;;;;;;4.00;1.38;;;;;;;19.93;45.71;101432.19;4760261;30;20158;-84
2021/05/18 14:26:32;;;;;;;3.33;1.55;;;;;;;20.00;45.76;101442.59;4772285;30;20054;-90
2021/05/18 14:28:58;;;;;;;4.68;1.50;;;;;;;19.98;45.96;101437.38;4796941;30;20031;-90
2021/05/18 14:31:25;;;;;;;2.83;1.27;;;;;;;20.01;46.19;101437.34;4780690;30;20031;-91
2021/05/18 14:33:51;;;;;;;4.43;1.50;;;;;;;20.04;46.06;101454.75;4798257;29;20031;-92
2021/05/18 14:36:16;;;;;;;3.13;1.48;;;;;;;20.02;45.97;101440.84;4780738;30;20022;-88
2021/05/18 14:38:45;;;;;;;3.35;1.30;;;;;;;20.04;46.00;101436.47;4764243;30;20134;-94
2021/05/18 14:46:24;;;;;;;2.63;1.40;;;;;;;20.03;45.95;101445.16;4791210;30;20065;-88
2021/05/18 14:56:53;;;;;;;3.03;1.25;;;;;;;20.04;45.92;101452.13;4792234;29;20050;-87
2021/05/18 14:59:18;;;;;;;4.30;2.10;;;;;;;19.96;44.57;101462.63;4791273;30;20127;-87
2021/05/18 15:01:44;;;;;;;5.57;2.00;;;;;;;19.84;43.54;101461.03;4781665;30;20063;-88
2021/05/18 15:04:09;;;;;;;6.13;1.98;;;;;;;19.83;44.44;101469.72;4796302;30;20443;-88
2021/05/18 15:06:34;;;;;;;3.97;1.63;;;;;;;19.87;44.45;101462.75;4763765;30;20055;-87
2021/05/18 15:09:00;;;;;;;3.30;1.60;;;;;;;19.93;44.74;101465.31;4763280;30;20028;-89
2021/05/18 15:11:25;;;;;;;2.92;1.42;;;;;;;19.98;45.20;101455.66;4793810;30;20042;-89
2021/05/18 15:13:51;;;;;;;4.05;1.30;;;;;;;20.03;45.27;101460.84;4763823;30;20472;-87
2021/05/18 15:16:17;;;;;;;4.13;1.55;;;;;;;20.04;45.28;101459.97;4763716;30;20039;-87
2021/05/18 15:18:44;;;;;;;3.88;1.17;;;;;;;20.08;45.50;101469.50;4763484;30;20043;-86
2021/05/18 15:21:10;;;;;;;7.13;1.48;;;;;;;20.07;45.25;101463.41;4793888;30;20046;-88
2021/05/18 15:23:39;;;;;;;2.35;1.38;;;;;;;20.08;45.32;101466.91;4777518;30;20035;-87
2021/05/18 15:26:04;;;;;;;6.65;1.60;;;;;;;20.08;45.60;101464.28;4777438;30;20031;-88
2021/05/18 15:28:30;;;;;;;4.97;1.50;;;;;;;20.10;45.84;101467.75;4762277;30;20031;-89
2021/05/18 15:30:56;;;;;;;2.30;1.10;;;;;;;20.11;45.67;101474.69;4762577;30;20035;-87
2021/05/18 15:33:21;;;;;;;5.22;1.63;;;;;;;20.11;45.78;101474.69;4793154;30;20039;-87
2021/05/18 15:35:46;;;;;;;2.13;1.08;;;;;;;20.10;45.82;101471.22;4777232;30;20047;-87
2021/05/18 15:38:12;;;;;;;4.10;1.20;;;;;;;20.10;45.91;101484.28;4778395;30;20039;-86
2021/05/18 15:40:37;;;;;;;4.97;1.55;;;;;;;20.12;45.93;101479.91;4761041;30;20070;-87
2021/05/18 15:43:03;;;;;;;3.35;1.30;;;;;;;20.13;45.86;101481.63;4760380;30;20040;-87
2021/05/18 15:45:29;;;;;;;2.28;1.17;;;;;;;20.14;45.86;101486.00;4775146;30;20093;-86
2021/05/18 15:47:54;;;;;;;6.13;1.30;;;;;;;20.13;45.94;101486.00;4775271;30;20047;-87
2021/05/18 15:50:20;;;;;;;3.40;1.27;;;;;;;20.13;46.07;101486.84;4761299;30;20035;-87
2021/05/18 15:52:46;;;;;;;3.83;1.40;;;;;;;20.15;46.02;101481.63;4760691;30;20040;-86
2021/05/18 15:55:11;;;;;;;4.38;1.40;;;;;;;20.14;46.08;101483.38;4775738;30;20035;-87
2021/05/18 15:57:36;;;;;;;3.45;1.45;;;;;;;20.14;46.10;101485.09;4775443;30;20047;-85
2021/05/18 16:00:04;;;;;;;3.88;1.38;;;;;;;20.14;46.07;101483.38;4760952;30;20039;-85
2021/05/18 16:02:30;;;;;;;2.72;1.35;;;;;;;20.16;46.12;101490.31;4776543;30;20035;-85
2021/05/18 16:04:55;;;;;;;2.63;1.10;;;;;;;20.13;45.99;101486.84;4790670;29;20039;-88
2021/05/18 16:07:22;;;;;;;4.85;1.38;;;;;;;20.15;46.20;101489.47;4774520;30;20055;-89
2021/05/18 16:09:47;;;;;;;4.07;1.40;;;;;;;20.16;46.20;101495.56;4760843;30;20027;-86
2021/05/18 16:12:14;;;;;;;3.28;1.20;;;;;;;20.15;46.06;101492.09;4763537;30;20502;-87
2021/05/18 16:14:40;;;;;;;6.53;1.52;;;;;;;20.15;46.38;101492.09;4781162;30;20483;-85
2021/05/18 16:17:05;;;;;;;3.47;1.25;;;;;;;20.16;46.28;101498.16;4793743;30;20112;-87
2021/05/18 16:19:30;;;;;;;3.30;1.30;;;;;;;20.17;46.30;101499.91;4760744;30;20031;-87
2021/05/18 16:21:56;;;;;;;3.15;1.27;;;;;;;20.16;46.39;101496.41;4760371;30;20051;-87
2021/05/18 16:24:24;;;;;;;3.28;1.33;;;;;;;20.17;46.21;101499.91;4774507;30;20032;-89
2021/05/18 16:26:50;;;;;;;2.65;1.30;;;;;;;20.16;46.30;101496.41;4774376;30;20067;-88
2021/05/18 16:29:16;;;;;;;3.40;1.20;;;;;;;20.16;46.29;101500.78;4774557;30;20036;-88
2021/05/18 16:31:41;;;;;;;4.95;1.30;;;;;;;20.16;46.27;101506.00;4790798;30;20146;-88
2021/05/18 16:34:06;;;;;;;3.35;1.20;;;;;;;20.17;46.44;101505.16;4759634;30;20532;-87
2021/05/18 16:36:32;;;;;;;3.35;1.25;;;;;;;20.15;46.48;101502.53;4759857;30;20040;-87
2021/05/18 16:38:58;;;;;;;3.25;1.30;;;;;;;20.15;46.39;101505.16;4776217;30;20054;-88
2021/05/18 16:41:23;;;;;;;3.38;1.50;;;;;;;20.15;46.31;101510.38;4791932;30;20046;-89
2021/05/18 16:43:49;;;;;;;3.38;1.50;;;;;;;20.12;46.16;101498.22;4775066;30;20056;-88
2021/05/18 16:46:15;;;;;;;4.80;1.75;;;;;;;20.10;46.36;101502.59;4760983;30;20044;-90
2021/05/18 16:48:41;;;;;;;3.70;1.55;;;;;;;20.12;46.32;101513.00;4767271;30;20039;-88
2021/05/18 16:51:09;;;;;;;2.65;1.83;;;;;;;20.09;45.98;101511.28;4783984;30;20095;-88
2021/05/18 16:53:35;;;;;;;3.65;2.05;;;;;;;20.08;45.97;101513.94;4779173;30;20104;-90
2021/05/18 16:56:03;;;;;;;3.38;1.95;;;;;;;20.07;45.99;101518.28;4759987;30;20114;-88
2021/05/18 16:58:28;;;;;;;4.55;2.20;;;;;;;20.06;46.03;101508.72;4775162;30;20039;-89
2021/05/18 17:00:54;;;;;;;3.65;1.80;;;;;;;20.06;45.93;101508.72;4760282;30;20116;-87
2021/05/18 17:03:20;;;;;;;5.85;2.53;;;;;;;20.06;45.91;101513.94;4760016;30;20437;-88
2021/05/18 17:05:45;;;;;;;4.28;2.17;;;;;;;20.06;46.14;101507.84;4774970;30;20142;-90
2021/05/18 17:08:11;;;;;;;4.72;2.58;;;;;;;20.03;46.04;101508.72;4777732;30;20079;-91
2021/05/18 17:10:40;;;;;;;6.20;2.38;;;;;;;20.03;46.00;101507.88;4761754;30;20463;-91
2021/05/18 17:13:06;;;;;;;3.60;2.25;;;;;;;20.02;45.95;101508.75;4777252;30;20040;-90
2021/05/18 17:15:32;;;;;;;4.15;2.30;;;;;;;20.02;45.81;101522.69;4774849;30;20042;-88
2021/05/18 17:17:58;;;;;;;5.25;2.67;;;;;;;20.03;46.00;101513.94;4762354;30;20114;-88
2021/05/18 17:20:26;;;;;;;7.03;2.95;;;;;;;20.02;45.70;101512.22;4792591;30;20111;-91
2021/05/18 17:22:57;;;;;;;4.68;2.63;;;;;;;20.03;45.62;101511.34;4766918;30;20031;-90
2021/05/18 17:25:23;;;;;;;3.88;2.70;;;;;;;20.01;45.29;101518.34;4786246;30;20077;-91
2021/05/18 17:27:49;;;;;;;4.47;3.03;;;;;;;20.03;45.66;101521.78;4778418;30;20036;-89
2021/05/18 17:30:18;;;;;;;6.47;2.90;;;;;;;20.03;45.53;101529.63;4785820;30;20054;-91
2021/05/18 17:32:44;;;;;;;5.25;2.50;;;;;;;20.03;45.31;101523.53;4781789;30;20036;-93
2021/05/18 17:35:10;;;;;;;5.03;2.88;;;;;;;19.99;45.43;101522.72;4778363;30;20398;-92
2021/05/18 17:37:42;;;;;;;5.32;2.55;;;;;;;20.00;45.16;101532.28;4794520;30;20110;-93
2021/05/18 17:40:10;;;;;;;8.70;3.80;;;;;;;19.98;45.36;101527.94;4780027;30;20051;-92
2021/05/18 17:42:35;;;;;;;5.78;3.30;;;;;;;20.01;45.37;101536.63;4778748;30;20028;-91
2021/05/18 17:45:04;;;;;;;8.80;3.95;;;;;;;20.02;45.69;101538.34;4762787;30;20126;-92
2021/05/18 17:47:30;;;;;;;7.47;4.07;;;;;;;20.05;45.94;101538.31;4776303;30;20118;-92
2021/05/18 17:49:57;;;;;;;6.72;4.03;;;;;;;20.10;46.04;101546.16;4777023;30;20128;-93
2021/05/18 17:52:26;;;;;;;8.75;4.07;;;;;;;20.08;46.21;101548.75;4777461;30;20051;-93
2021/05/18 17:54:52;;;;;;;10.15;3.83;;;;;;;20.08;46.25;101548.75;4761838;30;20031;-92
2021/05/18 17:57:17;;;;;;;9.85;3.83;;;;;;;20.06;46.47;101549.66;4777339;30;20042;-93
2021/05/18 17:59:42;;;;;;;7.75;3.97;;;;;;;20.04;46.21;101544.44;4760515;30;20035;-92
2021/05/18 18:02:09;;;;;;;11.70;4.20;;;;;;;20.03;46.47;101544.44;4775394;30;20421;-93
2021/05/18 18:04:36;;;;;;;9.05;3.85;;;;;;;20.04;46.58;101543.56;4775943;30;20058;-92
2021/05/18 18:07:08;;;;;;;6.10;3.50;;;;;;;20.04;46.75;101546.19;4776440;30;20116;-94
2021/05/18 18:09:43;;;;;;;6.95;3.20;;;;;;;20.00;46.89;101541.88;4776212;30;20039;-93
2021/05/18 18:12:11;;;;;;;7.90;3.20;;;;;;;20.01;46.77;101535.75;4792114;30;20082;-94
2021/05/18 18:14:37;;;;;;;7.13;3.25;;;;;;;20.04;46.63;101543.56;4760936;30;20118;-92
2021/05/18 18:17:07;;;;;;;7.57;3.78;;;;;;;20.01;47.08;101538.34;4775874;30;20028;-92
2021/05/18 18:19:35;;;;;;;6.03;3.33;;;;;;;20.00;47.01;101545.34;4775718;30;20088;-94
2021/05/18 18:22:01;;;;;;;6.03;3.08;;;;;;;20.05;46.95;101553.13;4777410;30;20031;-91
2021/05/18 18:24:27;;;;;;;5.30;2.95;;;;;;;20.07;47.21;101548.75;4773084;30;20047;-88